sensor_id;sensor_type;location;lat;lon;timestamp;pressure;altitude;pressure_sealevel;temperature;humidity
58739;BME280;44512;53.046;18.604;2023-05-08T00:05:04;103024.66;;;10.44;48.46
58739;BME280;44512;53.046;18.604;2023-05-08T00:15:31;103023.81;;;10.34;48.59
58739;BME280;44512;53.046;18.604;2023-05-08T00:25:59;103019.48;;;10.12;48.80
58739;BME280;44512;53.046;18.604;2023-05-08T00:36:28;103021.19;;;9.94;49.03
58739;BME280;44512;53.046;18.604;2023-05-08T00:46:56;103034.67;;;9.74;49.27
58739;BME280;44512;53.046;18.604;2023-05-08T00:57:25;103030.79;;;9.57;49.47
58739;BME280;44512;53.046;18.604;2023-05-08T01:07:54;103048.94;;;9.46;49.51
58739;BME280;44512;53.046;18.604;2023-05-08T01:18:32;103057.44;;;9.31;49.65
58739;BME280;44512;53.046;18.604;2023-05-08T01:49:51;103047.48;;;8.80;50.30
58739;BME280;44512;53.046;18.604;2023-05-08T02:00:18;103059.85;;;8.62;50.53
58739;BME280;44512;53.046;18.604;2023-05-08T02:10:44;103071.70;;;8.50;50.73
58739;BME280;44512;53.046;18.604;2023-05-08T02:21:13;103080.95;;;8.36;50.90
58739;BME280;44512;53.046;18.604;2023-05-08T02:31:41;103086.48;;;8.23;50.87
58739;BME280;44512;53.046;18.604;2023-05-08T02:42:09;103088.48;;;8.10;50.89
58739;BME280;44512;53.046;18.604;2023-05-08T02:52:46;103104.92;;;7.96;50.95
58739;BME280;44512;53.046;18.604;2023-05-08T03:13:35;103098.09;;;7.69;51.24
58739;BME280;44512;53.046;18.604;2023-05-08T03:24:04;103100.80;;;7.58;51.41
58739;BME280;44512;53.046;18.604;2023-05-08T03:34:32;103109.25;;;7.53;51.68
58739;BME280;44512;53.046;18.604;2023-05-08T03:45:01;103109.03;;;7.45;52.11
58739;BME280;44512;53.046;18.604;2023-05-08T03:55:29;103111.11;;;7.42;52.67
58739;BME280;44512;53.046;18.604;2023-05-08T04:06:13;103122.98;;;7.39;53.20
58739;BME280;44512;53.046;18.604;2023-05-08T04:16:32;103128.75;;;7.46;54.03
58739;BME280;44512;53.046;18.604;2023-05-08T04:26:53;103144.07;;;7.56;54.98
58739;BME280;44512;53.046;18.604;2023-05-08T04:37:26;103156.05;;;7.75;55.93
58739;BME280;44512;53.046;18.604;2023-05-08T04:47:50;103157.16;;;7.95;56.97
58739;BME280;44512;53.046;18.604;2023-05-08T04:58:18;103182.38;;;8.16;57.91
58739;BME280;44512;53.046;18.604;2023-05-08T05:08:47;103187.80;;;8.39;58.94
58739;BME280;44512;53.046;18.604;2023-05-08T05:19:15;103180.62;;;8.60;59.39
58739;BME280;44512;53.046;18.604;2023-05-08T05:29:44;103186.67;;;8.84;59.64
58739;BME280;44512;53.046;18.604;2023-05-08T05:40:12;103193.68;;;9.08;59.90
58739;BME280;44512;53.046;18.604;2023-05-08T05:50:40;103201.69;;;9.30;59.57
58739;BME280;44512;53.046;18.604;2023-05-08T06:01:09;103198.07;;;9.51;59.15
58739;BME280;44512;53.046;18.604;2023-05-08T06:11:37;103205.45;;;9.70;58.10
58739;BME280;44512;53.046;18.604;2023-05-08T06:22:06;103211.11;;;9.87;56.88
58739;BME280;44512;53.046;18.604;2023-05-08T06:32:34;103225.70;;;10.06;55.58
58739;BME280;44512;53.046;18.604;2023-05-08T06:43:02;103209.80;;;10.22;54.51
58739;BME280;44512;53.046;18.604;2023-05-08T06:53:31;103208.19;;;10.40;51.82
58739;BME280;44512;53.046;18.604;2023-05-08T07:03:59;103213.91;;;10.57;50.99
58739;BME280;44512;53.046;18.604;2023-05-08T07:14:28;103216.93;;;10.73;50.13
58739;BME280;44512;53.046;18.604;2023-05-08T07:24:56;103226.78;;;10.84;50.25
58739;BME280;44512;53.046;18.604;2023-05-08T07:35:24;103213.67;;;10.99;50.03
58739;BME280;44512;53.046;18.604;2023-05-08T07:45:53;103219.66;;;11.12;49.90
58739;BME280;44512;53.046;18.604;2023-05-08T07:56:21;103206.38;;;11.28;49.72
58739;BME280;44512;53.046;18.604;2023-05-08T08:06:50;103210.35;;;11.43;49.94
58739;BME280;44512;53.046;18.604;2023-05-08T08:17:18;103207.16;;;11.58;49.50
58739;BME280;44512;53.046;18.604;2023-05-08T08:27:46;103199.82;;;11.78;48.66
58739;BME280;44512;53.046;18.604;2023-05-08T08:38:15;103203.36;;;11.97;47.95
58739;BME280;44512;53.046;18.604;2023-05-08T08:48:45;103198.45;;;12.11;47.43
58739;BME280;44512;53.046;18.604;2023-05-08T08:59:12;103181.27;;;12.20;47.31
58739;BME280;44512;53.046;18.604;2023-05-08T09:09:41;103186.56;;;12.39;47.13
58739;BME280;44512;53.046;18.604;2023-05-08T09:20:10;103183.81;;;12.67;46.08
58739;BME280;44512;53.046;18.604;2023-05-08T09:41:09;103163.00;;;12.93;44.33
58739;BME280;44512;53.046;18.604;2023-05-08T09:51:33;103165.84;;;13.10;42.65
58739;BME280;44512;53.046;18.604;2023-05-08T10:02:10;103152.10;;;13.29;42.30
58739;BME280;44512;53.046;18.604;2023-05-08T10:12:31;103157.95;;;13.42;40.12
58739;BME280;44512;53.046;18.604;2023-05-08T10:23:00;103154.64;;;13.57;37.59
58739;BME280;44512;53.046;18.604;2023-05-08T10:33:30;103150.30;;;13.72;38.73
58739;BME280;44512;53.046;18.604;2023-05-08T10:43:56;103138.80;;;13.86;39.58
58739;BME280;44512;53.046;18.604;2023-05-08T11:04:52;103123.61;;;14.18;38.34
58739;BME280;44512;53.046;18.604;2023-05-08T11:36:20;103106.30;;;14.43;35.55
58739;BME280;44512;53.046;18.604;2023-05-08T11:46:52;103102.41;;;14.54;36.34
58739;BME280;44512;53.046;18.604;2023-05-08T11:57:16;103091.67;;;14.61;36.40
58739;BME280;44512;53.046;18.604;2023-05-08T12:07:43;103099.52;;;14.72;36.47
58739;BME280;44512;53.046;18.604;2023-05-08T12:18:11;103081.12;;;14.82;36.41
58739;BME280;44512;53.046;18.604;2023-05-08T12:28:39;103082.12;;;14.97;35.92
58739;BME280;44512;53.046;18.604;2023-05-08T12:39:10;103077.33;;;15.16;35.89
58739;BME280;44512;53.046;18.604;2023-05-08T12:49:36;103054.77;;;15.30;35.15
58739;BME280;44512;53.046;18.604;2023-05-08T13:00:05;103049.93;;;15.56;35.79
58739;BME280;44512;53.046;18.604;2023-05-08T13:21:01;103036.68;;;16.07;34.99
58739;BME280;44512;53.046;18.604;2023-05-08T13:31:29;103030.88;;;16.10;35.05
58739;BME280;44512;53.046;18.604;2023-05-08T13:41:57;103013.56;;;16.41;34.18
58739;BME280;44512;53.046;18.604;2023-05-08T13:52:25;103020.16;;;16.70;33.69
58739;BME280;44512;53.046;18.604;2023-05-08T14:02:54;103000.88;;;16.86;32.82
58739;BME280;44512;53.046;18.604;2023-05-08T14:13:22;102993.90;;;16.98;32.37
58739;BME280;44512;53.046;18.604;2023-05-08T14:23:50;102997.00;;;17.10;31.85
58739;BME280;44512;53.046;18.604;2023-05-08T14:34:19;103000.87;;;17.30;32.04
58739;BME280;44512;53.046;18.604;2023-05-08T14:49:50;102992.01;;;18.15;31.22
58739;BME280;44512;53.046;18.604;2023-05-08T15:00:18;102986.94;;;18.90;30.05
58739;BME280;44512;53.046;18.604;2023-05-08T15:10:46;102981.88;;;19.76;28.74
58739;BME280;44512;53.046;18.604;2023-05-08T15:21:15;102969.10;;;20.49;28.48
58739;BME280;44512;53.046;18.604;2023-05-08T15:31:43;102958.81;;;21.16;27.38
58739;BME280;44512;53.046;18.604;2023-05-08T15:42:11;102962.66;;;21.60;26.74
58739;BME280;44512;53.046;18.604;2023-05-08T15:52:40;102958.87;;;21.93;25.65
58739;BME280;44512;53.046;18.604;2023-05-08T16:03:08;102961.07;;;22.16;25.29
58739;BME280;44512;53.046;18.604;2023-05-08T16:13:36;102952.87;;;22.34;24.74
58739;BME280;44512;53.046;18.604;2023-05-08T16:24:05;102946.05;;;22.36;24.34
58739;BME280;44512;53.046;18.604;2023-05-08T16:34:34;102945.22;;;22.36;24.39
58739;BME280;44512;53.046;18.604;2023-05-08T16:45:03;102955.84;;;22.32;24.78
58739;BME280;44512;53.046;18.604;2023-05-08T16:55:30;102945.27;;;21.98;24.93
58739;BME280;44512;53.046;18.604;2023-05-08T17:05:58;102941.14;;;21.44;25.15
58739;BME280;44512;53.046;18.604;2023-05-08T17:16:26;102939.43;;;20.85;25.79
58739;BME280;44512;53.046;18.604;2023-05-08T17:26:55;102935.42;;;20.41;26.56
58739;BME280;44512;53.046;18.604;2023-05-08T17:37:23;102945.55;;;19.94;27.15
58739;BME280;44512;53.046;18.604;2023-05-08T17:47:51;102949.94;;;19.68;27.74
58739;BME280;44512;53.046;18.604;2023-05-08T17:58:20;102959.35;;;19.46;28.13
58739;BME280;44512;53.046;18.604;2023-05-08T18:08:48;102967.27;;;19.21;28.70
58739;BME280;44512;53.046;18.604;2023-05-08T18:19:16;102983.23;;;19.04;28.86
58739;BME280;44512;53.046;18.604;2023-05-08T18:29:45;102988.59;;;18.84;29.35
58739;BME280;44512;53.046;18.604;2023-05-08T18:40:13;102990.10;;;18.65;29.79
58739;BME280;44512;53.046;18.604;2023-05-08T18:50:42;102990.80;;;18.46;30.14
58739;BME280;44512;53.046;18.604;2023-05-08T19:01:10;102993.57;;;18.25;30.76
58739;BME280;44512;53.046;18.604;2023-05-08T19:11:38;103001.70;;;17.96;31.57
58739;BME280;44512;53.046;18.604;2023-05-08T19:22:07;103003.00;;;17.64;32.36
58739;BME280;44512;53.046;18.604;2023-05-08T19:32:35;103001.26;;;17.27;32.96
58739;BME280;44512;53.046;18.604;2023-05-08T19:43:03;102993.97;;;16.90;33.70
58739;BME280;44512;53.046;18.604;2023-05-08T19:53:32;102992.59;;;16.56;34.44
58739;BME280;44512;53.046;18.604;2023-05-08T20:04:00;102989.94;;;16.25;35.01
58739;BME280;44512;53.046;18.604;2023-05-08T20:14:28;102984.85;;;15.99;35.80
58739;BME280;44512;53.046;18.604;2023-05-08T20:24:57;102976.82;;;15.75;36.20
58739;BME280;44512;53.046;18.604;2023-05-08T20:35:25;102976.59;;;15.45;36.59
58739;BME280;44512;53.046;18.604;2023-05-08T20:45:54;102980.82;;;15.17;37.09
58739;BME280;44512;53.046;18.604;2023-05-08T20:56:22;102976.65;;;14.90;37.61
58739;BME280;44512;53.046;18.604;2023-05-08T21:06:50;102973.79;;;14.67;38.21
58739;BME280;44512;53.046;18.604;2023-05-08T21:17:19;102963.24;;;14.39;38.70
58739;BME280;44512;53.046;18.604;2023-05-08T21:27:47;102969.52;;;14.15;39.21
58739;BME280;44512;53.046;18.604;2023-05-08T21:38:16;102967.47;;;13.93;39.68
58739;BME280;44512;53.046;18.604;2023-05-08T21:48:44;102963.52;;;13.71;40.14
58739;BME280;44512;53.046;18.604;2023-05-08T21:59:12;102964.98;;;13.49;40.67
58739;BME280;44512;53.046;18.604;2023-05-08T22:09:41;102966.45;;;13.27;41.11
58739;BME280;44512;53.046;18.604;2023-05-08T22:20:11;102966.15;;;13.04;41.43
58739;BME280;44512;53.046;18.604;2023-05-08T22:30:38;102958.86;;;12.78;41.84
58739;BME280;44512;53.046;18.604;2023-05-08T22:41:06;102958.91;;;12.61;42.18
58739;BME280;44512;53.046;18.604;2023-05-08T22:51:34;102968.98;;;12.42;42.56
58739;BME280;44512;53.046;18.604;2023-05-08T23:02:03;102964.44;;;12.25;43.06
58739;BME280;44512;53.046;18.604;2023-05-08T23:12:31;102952.89;;;12.05;43.41
58739;BME280;44512;53.046;18.604;2023-05-08T23:23:00;102961.57;;;11.91;43.80
58739;BME280;44512;53.046;18.604;2023-05-08T23:33:29;102968.97;;;11.71;44.22
58739;BME280;44512;53.046;18.604;2023-05-08T23:43:56;102964.05;;;11.57;44.60
58739;BME280;44512;53.046;18.604;2023-05-08T23:54:25;102977.59;;;11.39;44.98
